Terminal Aerodrome Forecast
Issued by NWS Riverton, WY

Home | Current Version | Previous Version | Text Only | Print | Product List | Glossary On
Versions: 1 2 3 4 5 6 7 8 9 10 11 12 13 14 15 16
000
FTUS45 KRIW 022329
TAFRIW
TAF
KRIW 022329Z 0300/0324 06010KT P6SM SCT110
     FM030400 08009KT P6SM FEW120
     FM031000 VRB06KT P6SM SKC
     FM032000 13007KT P6SM SCT120=

USA.gov is the U.S. government's official web portal to all federal, state and local government web resources and services.